createdAt,value
2019-03-19T00:00:39.610Z,1.90
2019-03-19T00:03:09.267Z,1.90
2019-03-19T00:05:38.918Z,1.90
2019-03-19T00:08:08.591Z,1.90
2019-03-19T00:10:38.246Z,1.90
2019-03-19T00:13:07.982Z,1.80
2019-03-19T00:15:37.702Z,1.90
2019-03-19T00:18:07.368Z,1.90
2019-03-19T00:20:38.038Z,1.90
2019-03-19T00:23:08.707Z,1.90
2019-03-19T00:25:38.276Z,1.90
2019-03-19T00:28:08.007Z,1.90
2019-03-19T00:30:37.648Z,1.90
2019-03-19T00:33:07.332Z,1.90
2019-03-19T00:35:37.085Z,1.90
2019-03-19T00:38:06.859Z,1.90
2019-03-19T00:40:36.524Z,1.90
2019-03-19T00:43:06.187Z,1.90
2019-03-19T00:45:35.887Z,1.90
2019-03-19T00:48:05.532Z,1.90
2019-03-19T00:50:35.094Z,1.90
2019-03-19T00:53:04.870Z,1.90
2019-03-19T00:55:40.557Z,1.90
2019-03-19T00:58:05.848Z,1.90
2019-03-19T01:00:35.560Z,1.90
2019-03-19T01:03:05.320Z,1.80
2019-03-19T01:05:34.998Z,1.90
2019-03-19T01:08:04.647Z,1.80
2019-03-19T01:10:34.382Z,1.80
2019-03-19T01:13:04.020Z,1.90
2019-03-19T01:15:33.767Z,1.90
2019-03-19T01:18:03.440Z,1.90
2019-03-19T01:20:33.686Z,1.80
2019-03-19T01:23:03.385Z,1.80
2019-03-19T01:25:33.041Z,1.80
2019-03-19T01:28:02.972Z,1.80
2019-03-19T01:30:32.556Z,1.80
2019-03-19T01:33:02.217Z,1.80
2019-03-19T01:35:31.838Z,1.80
2019-03-19T01:38:01.521Z,1.80
2019-03-19T01:40:31.254Z,1.80
2019-03-19T01:43:00.918Z,1.80
2019-03-19T01:45:30.633Z,1.80
2019-03-19T01:48:00.346Z,1.80
2019-03-19T01:50:30.014Z,1.80
2019-03-19T01:52:59.672Z,1.80
2019-03-19T01:55:29.272Z,1.80
2019-03-19T01:57:58.927Z,1.90
2019-03-19T02:00:28.486Z,1.90
2019-03-19T02:02:58.138Z,1.90
2019-03-19T02:05:27.794Z,1.90
2019-03-19T02:07:57.396Z,1.90
2019-03-19T02:10:27.134Z,1.90
2019-03-19T02:12:56.775Z,1.90
2019-03-19T02:15:26.385Z,1.90
2019-03-19T02:17:56.096Z,1.90
2019-03-19T02:20:25.775Z,1.90
2019-03-19T02:22:55.417Z,1.90
2019-03-19T02:25:25.180Z,1.90
2019-03-19T02:27:54.857Z,1.90
2019-03-19T02:30:24.723Z,1.90
2019-03-19T02:32:54.409Z,1.90
2019-03-19T02:35:24.059Z,1.90
2019-03-19T02:37:53.712Z,1.90
2019-03-19T02:40:23.431Z,1.90
2019-03-19T02:42:53.106Z,1.90
2019-03-19T02:45:22.833Z,1.90
2019-03-19T02:47:52.539Z,1.90
2019-03-19T02:50:22.145Z,1.90
2019-03-19T02:52:51.719Z,1.90
2019-03-19T02:55:21.388Z,1.90
2019-03-19T02:57:51.062Z,1.90
2019-03-19T03:00:20.707Z,1.90
2019-03-19T03:02:50.363Z,1.90
2019-03-19T03:05:21.386Z,1.90
2019-03-19T03:07:51.234Z,1.90
2019-03-19T03:10:20.897Z,1.90
2019-03-19T03:12:50.524Z,1.90
2019-03-19T03:15:20.288Z,1.90
2019-03-19T03:17:50.000Z,1.90
2019-03-19T03:20:19.643Z,1.90
2019-03-19T03:22:49.288Z,1.90
2019-03-19T03:25:18.981Z,1.90
2019-03-19T03:27:48.566Z,1.90
2019-03-19T03:30:22.815Z,1.90
2019-03-19T03:32:52.446Z,1.90
2019-03-19T03:35:22.296Z,1.90
2019-03-19T03:37:52.146Z,1.80
2019-03-19T03:40:21.727Z,1.80
2019-03-19T03:42:51.378Z,1.80
2019-03-19T03:45:21.135Z,1.80
2019-03-19T03:47:50.762Z,1.80
2019-03-19T03:50:20.619Z,1.70
2019-03-19T03:52:50.362Z,1.80
2019-03-19T03:55:20.571Z,1.70
2019-03-19T03:57:50.205Z,1.70
2019-03-19T04:00:23.717Z,1.80
2019-03-19T04:02:53.399Z,1.70
2019-03-19T04:05:23.037Z,1.70
2019-03-19T04:07:52.650Z,1.70
2019-03-19T04:10:22.332Z,1.70
2019-03-19T04:12:52.020Z,1.70
2019-03-19T04:15:21.598Z,1.70
2019-03-19T04:17:51.296Z,1.60
2019-03-19T04:20:20.967Z,1.60
2019-03-19T04:22:50.740Z,1.60
2019-03-19T04:25:20.318Z,1.60
2019-03-19T04:27:50.007Z,1.50
2019-03-19T04:30:20.562Z,1.60
2019-03-19T04:32:50.205Z,1.50
2019-03-19T04:35:19.811Z,1.50
2019-03-19T04:37:49.488Z,1.50
2019-03-19T04:40:19.211Z,1.40
2019-03-19T04:42:48.913Z,1.40
2019-03-19T04:45:18.724Z,1.40
2019-03-19T04:47:48.417Z,1.40
2019-03-19T04:50:18.063Z,1.40
2019-03-19T04:52:47.717Z,1.40
2019-03-19T04:55:17.809Z,1.30
2019-03-19T04:57:48.082Z,1.30
2019-03-19T05:00:18.385Z,1.30
2019-03-19T05:02:48.053Z,1.30
2019-03-19T05:05:17.791Z,1.30
2019-03-19T05:07:47.383Z,1.20
2019-03-19T05:10:18.001Z,1.20
2019-03-19T05:12:47.656Z,1.20
2019-03-19T05:15:17.388Z,1.20
2019-03-19T05:17:46.989Z,1.20
2019-03-19T05:20:17.684Z,1.20
2019-03-19T05:22:47.417Z,1.20
2019-03-19T05:25:17.082Z,1.10
2019-03-19T05:27:46.780Z,1.10
2019-03-19T05:30:18.682Z,1.00
2019-03-19T05:32:48.424Z,1.00
2019-03-19T05:35:17.992Z,1.00
2019-03-19T05:37:47.676Z,1.00
2019-03-19T05:40:17.802Z,1.00
2019-03-19T05:42:47.434Z,1.00
2019-03-19T05:45:17.140Z,0.90
2019-03-19T05:47:46.772Z,0.90
2019-03-19T05:50:22.056Z,0.90
2019-03-19T05:52:51.722Z,0.90
2019-03-19T05:55:21.362Z,0.90
2019-03-19T05:57:50.948Z,0.90
2019-03-19T06:00:22.188Z,0.90
2019-03-19T06:02:51.833Z,0.90
2019-03-19T06:05:21.687Z,0.90
2019-03-19T06:07:51.261Z,0.90
2019-03-19T06:10:21.123Z,0.90
2019-03-19T06:12:51.868Z,0.90
2019-03-19T06:15:21.590Z,1.00
2019-03-19T06:17:51.180Z,1.00
2019-03-19T06:20:21.076Z,1.00
2019-03-19T06:22:50.644Z,1.00
2019-03-19T06:25:20.228Z,1.10
2019-03-19T06:27:59.888Z,1.10
2019-03-19T06:30:25.057Z,1.20
2019-03-19T06:32:54.789Z,1.20
2019-03-19T06:35:24.432Z,1.20
2019-03-19T06:37:54.103Z,1.30
2019-03-19T06:40:23.825Z,1.30
2019-03-19T06:42:53.496Z,1.30
2019-03-19T06:45:23.505Z,1.40
2019-03-19T06:47:53.281Z,1.40
2019-03-19T06:50:22.944Z,1.40
2019-03-19T06:52:52.532Z,1.40
2019-03-19T06:55:22.188Z,1.30
2019-03-19T06:57:51.854Z,1.40
2019-03-19T07:00:22.261Z,1.40
2019-03-19T07:02:52.012Z,1.40
2019-03-19T07:05:22.041Z,1.40
2019-03-19T07:07:51.654Z,1.40
2019-03-19T07:10:21.712Z,1.40
2019-03-19T07:12:51.465Z,1.40
2019-03-19T07:15:22.136Z,1.40
2019-03-19T07:17:51.899Z,1.50
2019-03-19T07:20:26.648Z,1.50
2019-03-19T07:22:56.296Z,1.60
2019-03-19T07:25:25.961Z,1.60
2019-03-19T07:27:55.563Z,1.70
2019-03-19T07:30:26.325Z,1.60
2019-03-19T07:32:55.979Z,1.70
2019-03-19T07:35:25.552Z,1.70
2019-03-19T07:37:55.201Z,1.80
2019-03-19T07:40:24.800Z,1.80
2019-03-19T07:42:54.444Z,1.80
2019-03-19T07:45:25.998Z,1.90
2019-03-19T07:47:55.626Z,2.00
2019-03-19T07:50:25.474Z,2.00
2019-03-19T07:52:55.624Z,2.10
2019-03-19T07:55:25.465Z,2.10
2019-03-19T07:57:55.139Z,2.10
2019-03-19T08:00:27.559Z,2.10
2019-03-19T08:02:57.228Z,2.10
2019-03-19T08:05:33.038Z,2.20
2019-03-19T08:07:59.267Z,2.20
2019-03-19T08:10:28.834Z,2.30
2019-03-19T08:12:58.542Z,2.30
2019-03-19T08:15:28.117Z,2.40
2019-03-19T08:17:57.859Z,2.50
2019-03-19T08:20:27.533Z,2.50
2019-03-19T08:22:57.174Z,2.60
2019-03-19T08:25:27.023Z,2.70
2019-03-19T08:27:56.761Z,2.70
2019-03-19T08:30:27.031Z,2.80
2019-03-19T08:32:56.783Z,2.80
2019-03-19T08:35:26.436Z,2.80
2019-03-19T08:37:55.972Z,2.80
2019-03-19T08:40:25.617Z,2.90
2019-03-19T08:42:55.270Z,3.00
2019-03-19T08:45:26.166Z,3.10
2019-03-19T08:47:55.824Z,3.10
2019-03-19T08:50:25.618Z,3.20
2019-03-19T08:52:55.775Z,3.20
2019-03-19T08:55:25.449Z,3.30
2019-03-19T08:57:55.051Z,3.40
2019-03-19T09:00:26.800Z,3.50
2019-03-19T09:02:56.499Z,3.70
2019-03-19T09:05:26.238Z,3.70
2019-03-19T09:07:55.891Z,3.80
2019-03-19T09:10:25.643Z,3.90
2019-03-19T09:12:55.330Z,4.00
2019-03-19T09:15:28.981Z,4.10
2019-03-19T09:17:58.536Z,4.10
2019-03-19T09:20:28.151Z,4.10
2019-03-19T09:22:57.791Z,4.20
2019-03-19T09:25:27.362Z,4.20
2019-03-19T09:27:56.958Z,4.30
2019-03-19T09:30:26.668Z,4.30
2019-03-19T09:32:56.334Z,4.30
2019-03-19T09:35:26.386Z,4.40
2019-03-19T09:37:58.856Z,4.50
2019-03-19T09:40:27.412Z,4.50
2019-03-19T09:42:57.076Z,4.60
2019-03-19T09:45:26.698Z,4.60
2019-03-19T09:47:56.421Z,4.60
2019-03-19T09:50:26.680Z,4.70
2019-03-19T09:52:56.374Z,4.70
2019-03-19T09:55:25.969Z,4.70
2019-03-19T09:57:55.532Z,4.80
2019-03-19T10:00:25.120Z,4.90
2019-03-19T10:02:54.781Z,4.90
2019-03-19T10:05:24.368Z,5.00
2019-03-19T10:07:55.682Z,5.00
2019-03-19T10:10:25.615Z,5.00
2019-03-19T10:12:56.634Z,5.10
2019-03-19T10:15:26.278Z,5.20
2019-03-19T10:17:55.955Z,5.20
2019-03-19T10:20:25.957Z,5.30
2019-03-19T10:22:55.544Z,5.40
2019-03-19T10:25:25.230Z,5.50
2019-03-19T10:27:54.888Z,5.50
2019-03-19T10:30:24.950Z,5.60
2019-03-19T10:32:54.585Z,5.70
2019-03-19T10:35:24.251Z,5.80
2019-03-19T10:37:53.913Z,5.90
2019-03-19T10:40:23.644Z,6.00
2019-03-19T10:42:53.303Z,6.10
2019-03-19T10:45:26.474Z,6.00
2019-03-19T10:47:56.120Z,6.00
2019-03-19T10:50:26.768Z,6.10
2019-03-19T10:52:56.407Z,6.20
2019-03-19T10:55:26.136Z,6.40
2019-03-19T10:57:55.914Z,6.50
2019-03-19T11:00:26.405Z,6.60
2019-03-19T11:02:56.152Z,6.60
2019-03-19T11:05:26.155Z,6.70
2019-03-19T11:07:55.854Z,6.70
2019-03-19T11:10:25.707Z,6.80
2019-03-19T11:12:55.420Z,6.90
2019-03-19T11:15:31.532Z,6.90
2019-03-19T11:18:00.834Z,7.00
2019-03-19T11:20:30.524Z,7.00
2019-03-19T11:23:00.186Z,7.00
2019-03-19T11:25:54.565Z,7.00
2019-03-19T11:28:21.972Z,7.10
2019-03-19T11:30:51.741Z,7.10
2019-03-19T11:33:21.370Z,7.10
2019-03-19T11:35:51.082Z,7.20
2019-03-19T11:38:20.756Z,7.40
2019-03-19T11:40:50.406Z,7.70
2019-03-19T11:43:20.066Z,7.80
2019-03-19T11:45:49.739Z,8.00
2019-03-19T11:48:19.384Z,8.00
2019-03-19T11:50:49.966Z,8.00
2019-03-19T11:53:19.614Z,8.10
2019-03-19T11:55:49.290Z,8.30
2019-03-19T11:58:18.975Z,8.30
2019-03-19T12:00:50.184Z,8.40
2019-03-19T12:03:19.898Z,8.50
2019-03-19T12:05:49.493Z,8.60
2019-03-19T12:08:19.209Z,8.50
2019-03-19T12:10:48.881Z,8.30
2019-03-19T12:13:18.517Z,8.30
2019-03-19T12:15:48.110Z,8.30
2019-03-19T12:18:17.722Z,8.30
2019-03-19T12:20:47.278Z,8.40
2019-03-19T12:23:16.948Z,8.40
2019-03-19T12:25:46.540Z,8.40
2019-03-19T12:28:16.172Z,8.40
2019-03-19T12:30:45.976Z,8.40
2019-03-19T12:33:15.589Z,8.50
2019-03-19T12:36:04.533Z,8.60
2019-03-19T12:38:34.177Z,8.70
2019-03-19T12:41:04.004Z,8.90
2019-03-19T12:43:33.660Z,9.00
2019-03-19T12:46:03.383Z,9.20
2019-03-19T12:48:34.152Z,9.20
2019-03-19T12:51:03.778Z,9.30
2019-03-19T12:53:33.444Z,9.40
2019-03-19T12:56:03.043Z,9.30
2019-03-19T12:58:32.660Z,9.10
2019-03-19T13:01:02.403Z,9.10
2019-03-19T13:03:32.043Z,9.00
2019-03-19T13:06:01.702Z,9.10
2019-03-19T13:08:31.455Z,9.20
2019-03-19T13:11:01.130Z,9.20
2019-03-19T13:13:30.770Z,9.30
2019-03-19T13:16:00.359Z,9.30
2019-03-19T13:18:30.004Z,9.30
2019-03-19T13:20:59.652Z,9.20
2019-03-19T13:23:29.381Z,9.30
2019-03-19T13:25:59.082Z,9.30
2019-03-19T13:28:28.763Z,9.30
2019-03-19T13:30:58.424Z,9.40
2019-03-19T13:33:28.083Z,9.50
2019-03-19T13:35:57.826Z,9.40
2019-03-19T13:38:27.488Z,9.30
2019-03-19T13:40:57.216Z,9.20
2019-03-19T13:43:26.808Z,9.20
2019-03-19T13:45:56.450Z,9.20
2019-03-19T13:48:26.118Z,9.10
2019-03-19T13:50:55.762Z,9.00
2019-03-19T13:53:25.484Z,9.00
2019-03-19T13:55:55.152Z,9.10
2019-03-19T13:58:27.180Z,9.10
2019-03-19T14:00:56.328Z,9.10
2019-03-19T14:03:26.048Z,9.10
2019-03-19T14:05:55.686Z,9.20
2019-03-19T14:08:25.295Z,9.30
2019-03-19T14:10:54.961Z,9.40
2019-03-19T14:13:24.630Z,9.40
2019-03-19T14:15:54.303Z,9.40
2019-03-19T14:18:23.949Z,9.30
2019-03-19T14:20:53.560Z,9.40
2019-03-19T14:23:23.186Z,9.30
2019-03-19T14:25:52.858Z,9.10
2019-03-19T14:28:22.460Z,9.00
2019-03-19T14:30:52.026Z,8.90
2019-03-19T14:33:21.633Z,8.90
2019-03-19T14:35:51.281Z,9.00
2019-03-19T14:38:21.009Z,8.90
2019-03-19T14:40:50.674Z,9.00
2019-03-19T14:43:20.320Z,9.20
2019-03-19T14:45:50.000Z,9.30
2019-03-19T14:48:19.651Z,9.40
2019-03-19T14:50:49.248Z,9.50
2019-03-19T14:53:18.907Z,9.60
2019-03-19T14:55:48.619Z,9.50
2019-03-19T14:58:18.352Z,9.40
2019-03-19T15:00:48.092Z,9.40
2019-03-19T15:03:17.807Z,9.30
2019-03-19T15:05:47.566Z,9.40
2019-03-19T15:08:18.206Z,9.20
2019-03-19T15:10:47.820Z,9.10
2019-03-19T15:13:17.480Z,9.10
2019-03-19T15:15:47.115Z,9.10
2019-03-19T15:18:16.765Z,8.90
2019-03-19T15:20:46.496Z,8.70
2019-03-19T15:23:17.208Z,8.60
2019-03-19T15:25:46.877Z,8.40
2019-03-19T15:28:16.601Z,8.20
2019-03-19T15:30:46.260Z,8.10
2019-03-19T15:33:15.996Z,7.90
2019-03-19T15:35:45.709Z,7.80
2019-03-19T15:38:15.273Z,7.60
2019-03-19T15:40:44.913Z,7.60
2019-03-19T15:43:14.581Z,7.40
2019-03-19T15:45:44.255Z,7.50
2019-03-19T15:48:14.005Z,7.40
2019-03-19T15:50:43.652Z,7.30
2019-03-19T15:53:13.376Z,7.20
2019-03-19T15:55:43.051Z,7.10
2019-03-19T15:58:12.785Z,7.00
2019-03-19T16:00:42.512Z,6.90
2019-03-19T16:03:12.236Z,6.80
2019-03-19T16:05:41.905Z,6.60
2019-03-19T16:08:11.549Z,6.50
2019-03-19T16:10:41.462Z,6.40
2019-03-19T16:13:11.305Z,6.30
2019-03-19T16:15:40.914Z,6.20
2019-03-19T16:18:10.689Z,6.20
2019-03-19T16:20:40.309Z,6.10
2019-03-19T16:23:10.864Z,6.00
2019-03-19T16:25:40.494Z,6.00
2019-03-19T16:28:10.096Z,5.80
2019-03-19T16:30:39.818Z,5.70
2019-03-19T16:33:09.543Z,5.70
2019-03-19T16:35:39.167Z,5.60
2019-03-19T16:38:08.904Z,5.60
2019-03-19T16:40:38.576Z,5.50
2019-03-19T16:43:08.286Z,5.50
2019-03-19T16:45:37.875Z,5.40
2019-03-19T16:48:07.603Z,5.30
2019-03-19T16:50:37.290Z,5.30
2019-03-19T16:53:07.008Z,5.30
2019-03-19T16:55:37.042Z,5.20
2019-03-19T16:58:06.764Z,5.20
2019-03-19T17:00:36.443Z,5.10
2019-03-19T17:03:06.160Z,5.10
2019-03-19T17:05:35.836Z,5.10
2019-03-19T17:08:05.539Z,5.00
2019-03-19T17:10:35.288Z,5.00
2019-03-19T17:13:05.220Z,5.00
2019-03-19T17:15:34.895Z,4.90
2019-03-19T17:18:07.200Z,4.90
2019-03-19T17:20:36.936Z,4.80
2019-03-19T17:23:06.596Z,4.80
2019-03-19T17:25:36.262Z,4.70
2019-03-19T17:28:05.940Z,4.70
2019-03-19T17:30:36.578Z,4.60
2019-03-19T17:33:06.558Z,4.60
2019-03-19T17:35:36.260Z,4.50
2019-03-19T17:38:05.978Z,4.50
2019-03-19T17:40:41.403Z,4.50
2019-03-19T17:43:06.894Z,4.40
2019-03-19T17:45:36.557Z,4.30
2019-03-19T17:48:15.649Z,4.20
2019-03-19T17:50:45.877Z,4.20
2019-03-19T17:53:15.446Z,4.10
2019-03-19T17:55:45.128Z,4.10
2019-03-19T17:58:14.784Z,4.00
2019-03-19T18:00:46.021Z,4.00
2019-03-19T18:03:16.737Z,3.90
2019-03-19T18:05:46.451Z,3.90
2019-03-19T18:08:16.127Z,3.80
2019-03-19T18:10:45.870Z,3.70
2019-03-19T18:13:15.607Z,3.70
2019-03-19T18:15:45.266Z,3.60
2019-03-19T18:18:15.010Z,3.60
2019-03-19T18:20:44.664Z,3.50
2019-03-19T18:23:14.448Z,3.50
2019-03-19T18:25:44.152Z,3.40
2019-03-19T18:28:13.802Z,3.30
2019-03-19T18:30:43.581Z,3.30
2019-03-19T18:33:13.234Z,3.20
2019-03-19T18:35:42.906Z,3.20
2019-03-19T18:38:12.554Z,3.20
2019-03-19T18:40:42.177Z,3.10
2019-03-19T18:43:11.919Z,3.10
2019-03-19T18:45:41.644Z,3.00
2019-03-19T18:48:12.380Z,3.00
2019-03-19T18:50:43.189Z,2.90
2019-03-19T18:53:12.916Z,2.90
2019-03-19T18:55:42.599Z,2.90
2019-03-19T18:58:12.225Z,2.80
2019-03-19T19:00:41.954Z,2.80
2019-03-19T19:03:11.598Z,2.80
2019-03-19T19:05:41.296Z,2.70
2019-03-19T19:08:11.017Z,2.70
2019-03-19T19:10:40.601Z,2.60
2019-03-19T19:13:10.272Z,2.60
2019-03-19T19:15:39.921Z,2.60
2019-03-19T19:18:09.647Z,2.50
2019-03-19T19:20:39.445Z,2.50
2019-03-19T19:23:09.088Z,2.50
2019-03-19T19:25:38.895Z,2.40
2019-03-19T19:28:08.632Z,2.40
2019-03-19T19:30:38.278Z,2.30
2019-03-19T19:33:07.932Z,2.30
2019-03-19T19:35:37.604Z,2.20
2019-03-19T19:38:07.250Z,2.20
2019-03-19T19:40:36.911Z,2.10
2019-03-19T19:43:06.639Z,2.00
2019-03-19T19:45:36.359Z,2.00
2019-03-19T19:48:06.111Z,1.90
2019-03-19T19:50:35.823Z,1.90
2019-03-19T19:53:05.510Z,1.80
2019-03-19T19:55:35.269Z,1.80
2019-03-19T19:58:04.996Z,1.70
2019-03-19T20:00:34.758Z,1.70
2019-03-19T20:03:12.320Z,1.60
2019-03-19T20:05:35.866Z,1.50
2019-03-19T20:08:05.530Z,1.50
2019-03-19T20:10:35.233Z,1.50
2019-03-19T20:13:04.893Z,1.40
2019-03-19T20:15:34.651Z,1.40
2019-03-19T20:18:04.578Z,1.40
2019-03-19T20:20:34.908Z,1.30
2019-03-19T20:23:04.630Z,1.30
2019-03-19T20:25:34.386Z,1.30
2019-03-19T20:28:04.281Z,1.20
2019-03-19T20:30:34.091Z,1.20
2019-03-19T20:33:03.940Z,1.20
2019-03-19T20:35:33.746Z,1.20
2019-03-19T20:38:03.468Z,1.10
2019-03-19T20:40:33.118Z,1.10
2019-03-19T20:43:02.788Z,1.10
2019-03-19T20:45:32.467Z,1.00
2019-03-19T20:48:02.138Z,1.00
2019-03-19T20:50:39.122Z,1.00
2019-03-19T20:53:08.776Z,0.90
2019-03-19T20:55:38.493Z,0.80
2019-03-19T20:58:08.145Z,0.80
2019-03-19T21:00:37.770Z,0.70
2019-03-19T21:03:07.566Z,0.70
2019-03-19T21:05:37.344Z,0.70
2019-03-19T21:08:07.031Z,0.70
2019-03-19T21:10:36.719Z,0.70
2019-03-19T21:13:06.371Z,0.60
2019-03-19T21:15:35.945Z,0.60
2019-03-19T21:18:05.596Z,0.60
2019-03-19T21:20:35.310Z,0.50
2019-03-19T21:23:05.188Z,0.50
2019-03-19T21:25:34.833Z,0.50
2019-03-19T21:28:13.618Z,0.50
2019-03-19T21:30:36.028Z,0.50
2019-03-19T21:33:05.754Z,0.40
2019-03-19T21:35:35.454Z,0.40
2019-03-19T21:38:05.212Z,0.40
2019-03-19T21:40:34.860Z,0.40
2019-03-19T21:43:04.520Z,0.40
2019-03-19T21:45:34.208Z,0.40
2019-03-19T21:48:04.872Z,0.30
2019-03-19T21:50:34.533Z,0.40
2019-03-19T21:53:04.559Z,0.30
2019-03-19T21:55:34.275Z,0.30
2019-03-19T21:58:03.935Z,0.30
2019-03-19T22:00:33.725Z,0.30
2019-03-19T22:03:03.616Z,0.30
2019-03-19T22:05:33.268Z,0.30
2019-03-19T22:08:03.007Z,0.30
2019-03-19T22:10:32.782Z,0.30
2019-03-19T22:13:02.426Z,0.30
2019-03-19T22:15:32.152Z,0.30
2019-03-19T22:18:01.736Z,0.30
2019-03-19T22:20:31.465Z,0.30
2019-03-19T22:23:01.115Z,0.30
2019-03-19T22:25:30.819Z,0.30
2019-03-19T22:28:00.468Z,0.30
2019-03-19T22:30:30.197Z,0.20
2019-03-19T22:32:59.836Z,0.20
2019-03-19T22:35:29.505Z,0.20
2019-03-19T22:37:59.152Z,0.20
2019-03-19T22:40:28.866Z,0.20
2019-03-19T22:42:58.458Z,0.20
2019-03-19T22:45:29.157Z,0.30
2019-03-19T22:47:58.873Z,0.30
2019-03-19T22:50:28.534Z,0.30
2019-03-19T22:52:58.198Z,0.30
2019-03-19T22:55:29.313Z,0.30
2019-03-19T22:57:59.272Z,0.30
2019-03-19T23:00:33.582Z,0.30
2019-03-19T23:03:06.867Z,0.30
2019-03-19T23:05:36.893Z,0.30
2019-03-19T23:08:06.590Z,0.30
2019-03-19T23:10:37.243Z,0.30
2019-03-19T23:13:07.061Z,0.20
2019-03-19T23:15:36.765Z,0.30
2019-03-19T23:18:06.442Z,0.20
2019-03-19T23:20:36.119Z,0.20
2019-03-19T23:23:05.858Z,0.20
2019-03-19T23:25:35.508Z,0.20
2019-03-19T23:28:05.264Z,0.20
2019-03-19T23:30:34.914Z,0.20
2019-03-19T23:33:05.722Z,0.20
2019-03-19T23:35:35.389Z,0.20
2019-03-19T23:38:05.098Z,0.20
2019-03-19T23:40:34.845Z,0.10
2019-03-19T23:43:04.514Z,0.10
2019-03-19T23:45:35.326Z,0.10
2019-03-19T23:48:05.287Z,0.00
2019-03-19T23:50:34.914Z,0.00
2019-03-19T23:53:04.599Z,0.00
2019-03-19T23:55:34.328Z,0.00
2019-03-19T23:58:03.992Z,0.00
